Time;durP1;ratioP1;P1;durP2;ratioP2;P2;SDS_P1;SDS_P2;PMS_P1;PMS_P2;Temp;Humidity;BMP_temperature;BMP_pressure;BME280_temperature;BME280_humidity;BME280_pressure;Samples;Min_cycle;Max_cycle;Signal;HPM_P1;HPM_P2
2022/10/24 00:00:29;;;;;;;0.50;0.50;;;15.80;99.90;;;;;;4922768;28;20620;-86
2022/10/24 00:03:25;;;;;;;0.50;0.50;;;15.80;99.90;;;;;;4897044;28;20439;-87
2022/10/24 00:10:35;;;;;;;0.50;0.50;;;15.70;99.90;;;;;;4824766;29;20053;-92
2022/10/24 00:13:38;;;;;;;;;;;;;;;;;;;;;
2022/10/24 00:16:35;;;;;;;0.40;0.40;;;15.50;99.90;;;;;;4806679;29;20249;-88
2022/10/24 00:23:23;;;;;;;;;;;;;;;;;;;;;
2022/10/24 00:28:53;;;;;;;0.50;0.50;;;15.60;99.90;;;;;;4703088;29;20051;-89
2022/10/24 00:31:46;;;;;;;0.45;0.45;;;15.50;99.90;;;;;;4702147;29;20566;-87
2022/10/24 00:34:25;;;;;;;0.50;0.50;;;15.60;99.90;;;;;;4681872;29;20051;-85
2022/10/24 00:37:39;;;;;;;0.50;0.50;;;15.60;99.90;;;;;;4683906;29;20062;-86
2022/10/24 00:40:13;;;;;;;0.50;0.50;;;15.60;99.90;;;;;;4814963;28;20054;-88
2022/10/24 00:42:49;;;;;;;0.47;0.47;;;15.60;99.90;;;;;;4863548;28;20554;-86
2022/10/24 00:45:49;;;;;;;0.50;0.50;;;15.60;99.90;;;;;;4897981;28;20063;-87
2022/10/24 00:48:33;;;;;;;0.50;0.50;;;15.40;99.90;;;;;;4903310;28;20053;-85
2022/10/24 00:51:23;;;;;;;0.50;0.50;;;15.30;99.90;;;;;;4952845;28;20504;-86
2022/10/24 00:54:31;;;;;;;0.40;0.40;;;15.30;99.90;;;;;;4934411;28;20060;-85
2022/10/24 00:57:34;;;;;;;;;;;;;;;;;;;;;
2022/10/24 01:00:16;;;;;;;0.50;0.50;;;15.30;99.90;;;;;;4935189;28;20045;-85
2022/10/24 01:03:08;;;;;;;0.45;0.45;;;15.40;99.90;;;;;;4889851;28;20070;-88
2022/10/24 01:06:00;;;;;;;0.50;0.50;;;15.50;99.90;;;;;;4923957;28;20081;-84
2022/10/24 01:08:56;;;;;;;0.40;0.40;;;15.50;99.90;;;;;;4929089;28;20850;-85
2022/10/24 01:11:55;;;;;;;0.40;0.40;;;15.50;99.90;;;;;;4923247;28;20057;-85
2022/10/24 01:14:23;;;;;;;0.50;0.50;;;15.60;99.90;;;;;;4913289;28;20438;-86
2022/10/24 01:17:27;;;;;;;0.50;0.50;;;15.50;99.90;;;;;;4924701;28;20053;-85
2022/10/24 01:20:23;;;;;;;0.50;0.50;;;15.40;99.90;;;;;;4846095;29;20590;-84
2022/10/24 01:23:13;;;;;;;0.50;0.50;;;15.40;99.90;;;;;;4926189;28;20423;-84
2022/10/24 01:26:12;;;;;;;0.50;0.50;;;15.40;99.90;;;;;;4937465;28;20092;-84
2022/10/24 01:29:05;;;;;;;0.50;0.50;;;15.40;99.90;;;;;;4945699;28;20057;-85
2022/10/24 01:32:01;;;;;;;0.40;0.40;;;15.30;99.90;;;;;;4906823;28;20049;-84
2022/10/24 01:34:50;;;;;;;0.50;0.50;;;15.30;99.90;;;;;;4905323;28;20516;-88
2022/10/24 01:37:32;;;;;;;0.50;0.50;;;15.20;99.90;;;;;;4946320;28;20077;-84
2022/10/24 01:40:44;;;;;;;0.50;0.50;;;15.20;99.90;;;;;;4924880;28;20513;-85
2022/10/24 01:43:47;;;;;;;0.50;0.50;;;15.10;99.90;;;;;;4902812;28;20823;-87
2022/10/24 01:46:23;;;;;;;0.50;0.50;;;15.10;99.90;;;;;;4924004;28;20598;-86
2022/10/24 01:48:59;;;;;;;0.40;0.40;;;15.00;99.90;;;;;;4923228;28;20192;-85
2022/10/24 01:51:34;;;;;;;0.50;0.50;;;15.00;99.90;;;;;;4922474;28;20058;-86
2022/10/24 01:54:10;;;;;;;0.50;0.50;;;15.00;99.90;;;;;;4919775;28;20052;-87
2022/10/24 01:56:39;;;;;;;0.40;0.40;;;15.00;99.90;;;;;;4927522;28;20316;-85
2022/10/24 01:59:32;;;;;;;0.50;0.50;;;14.90;99.90;;;;;;4936668;28;20144;-86
2022/10/24 02:02:16;;;;;;;0.50;0.50;;;15.00;99.90;;;;;;4914178;28;20217;-85
2022/10/24 02:05:11;;;;;;;0.50;0.50;;;15.00;99.90;;;;;;4952331;28;20906;-87
2022/10/24 02:11:30;;;;;;;;;;;;;;;;;;;;;
2022/10/24 02:14:09;;;;;;;0.50;0.50;;;14.90;99.90;;;;;;4923601;28;20053;-88
2022/10/24 02:16:49;;;;;;;0.50;0.50;;;14.90;99.90;;;;;;4929134;28;20080;-86
2022/10/24 02:19:44;;;;;;;0.40;0.40;;;14.80;99.90;;;;;;4944200;28;20615;-85
2022/10/24 02:22:57;;;;;;;0.40;0.40;;;14.80;99.90;;;;;;4959900;28;20720;-86
2022/10/24 02:25:43;;;;;;;0.40;0.40;;;14.70;99.90;;;;;;4940955;28;20051;-85
2022/10/24 02:28:33;;;;;;;0.40;0.40;;;14.70;99.90;;;;;;4924558;28;20045;-89
2022/10/24 02:31:17;;;;;;;0.40;0.40;;;14.70;99.90;;;;;;4927595;28;20080;-88
2022/10/24 02:34:11;;;;;;;0.50;0.50;;;14.70;99.90;;;;;;4944329;28;20071;-89
2022/10/24 02:36:43;;;;;;;0.50;0.50;;;14.70;99.90;;;;;;4889998;28;20424;-88
2022/10/24 02:39:47;;;;;;;0.45;0.45;;;14.60;99.90;;;;;;4937346;28;20477;-89
2022/10/24 02:43:27;;;;;;;0.50;0.50;;;14.50;99.90;;;;;;4844189;28;20142;-89
2022/10/24 02:50:18;;;;;;;0.40;0.40;;;14.70;99.90;;;;;;4790383;29;20087;-88
2022/10/24 02:57:12;;;;;;;0.50;0.50;;;14.70;99.90;;;;;;4801550;29;20170;-88
2022/10/24 03:00:39;;;;;;;0.47;0.47;;;14.80;99.90;;;;;;4771102;29;20068;-88
2022/10/24 03:03:57;;;;;;;0.50;0.50;;;15.00;99.90;;;;;;4821345;29;21026;-88
2022/10/24 03:06:50;;;;;;;0.40;0.40;;;15.20;99.90;;;;;;4822889;29;20056;-89
2022/10/24 03:10:26;;;;;;;0.40;0.40;;;15.20;99.90;;;;;;4827555;29;20088;-88
2022/10/24 03:16:18;;;;;;;0.40;0.40;;;15.50;99.90;;;;;;4783212;29;20179;-87
2022/10/24 03:18:45;;;;;;;0.50;0.50;;;15.40;99.90;;;;;;4764699;29;20057;-86
2022/10/24 03:21:44;;;;;;;0.40;0.40;;;15.40;99.90;;;;;;4803811;29;20065;-93
2022/10/24 03:24:37;;;;;;;0.43;0.43;;;15.40;99.90;;;;;;4752328;29;20126;-92
2022/10/24 03:31:00;;;;;;;0.40;0.40;;;15.50;99.90;;;;;;4693645;30;20847;-90
2022/10/24 03:37:30;;;;;;;0.50;0.50;;;15.80;99.90;;;;;;4709297;30;20039;-87
2022/10/24 03:40:53;;;;;;;0.50;0.50;;;15.80;99.90;;;;;;4702779;29;20076;-87
2022/10/24 03:43:51;;;;;;;0.40;0.40;;;15.90;99.90;;;;;;4681093;30;20419;-92
2022/10/24 03:46:19;;;;;;;0.40;0.40;;;15.90;99.90;;;;;;4669130;30;20059;-84
2022/10/24 03:49:45;;;;;;;0.50;0.50;;;16.00;99.90;;;;;;5003725;27;1579723;-83
2022/10/24 03:55:56;;;;;;;0.40;0.40;;;15.90;99.90;;;;;;4980736;28;20050;-90
2022/10/24 03:58:22;;;;;;;0.50;0.50;;;15.90;99.90;;;;;;4984411;28;20207;-89
2022/10/24 04:00:57;;;;;;;0.40;0.40;;;15.80;99.90;;;;;;4950912;28;20465;-92
2022/10/24 04:08:18;;;;;;;;;;;;;;;;;;;;;
2022/10/24 04:10:38;;;;;;;0.40;0.40;;;15.80;99.90;;;;;;4853238;28;20096;-87
2022/10/24 04:17:08;;;;;;;;;;;;;;;;;;;;;
2022/10/24 04:20:35;;;;;;;;;;;;;;;;;;;;;
2022/10/24 04:27:47;;;;;;;0.40;0.40;;;15.70;99.90;;;;;;4910589;28;20163;-87
2022/10/24 04:35:12;;;;;;;0.40;0.40;;;15.50;99.90;;;;;;4912274;28;20054;-91
2022/10/24 04:38:22;;;;;;;0.40;0.40;;;15.50;99.90;;;;;;4920075;28;20099;-94
2022/10/24 04:44:48;;;;;;;0.40;0.40;;;15.50;99.90;;;;;;4858796;29;20059;-90
2022/10/24 04:47:29;;;;;;;0.50;0.50;;;15.40;99.90;;;;;;4870136;28;20482;-87
2022/10/24 04:50:13;;;;;;;0.40;0.40;;;15.40;99.90;;;;;;4869529;28;20639;-85
2022/10/24 04:53:27;;;;;;;0.50;0.50;;;15.40;99.90;;;;;;4946127;28;20065;-93
2022/10/24 04:55:59;;;;;;;0.43;0.43;;;15.40;99.90;;;;;;4940706;28;20069;-85
2022/10/24 05:04:58;;;;;;;0.40;0.40;;;15.30;99.90;;;;;;5031521;27;20054;-87
2022/10/24 05:07:33;;;;;;;0.40;0.40;;;15.20;99.90;;;;;;5000756;27;20484;-85
2022/10/24 05:10:09;;;;;;;0.40;0.40;;;15.20;99.90;;;;;;5001348;27;20349;-88
2022/10/24 05:12:43;;;;;;;0.40;0.40;;;15.20;99.90;;;;;;5037594;27;20526;-89
2022/10/24 05:16:07;;;;;;;0.40;0.40;;;15.20;99.90;;;;;;5039552;27;20039;-88
2022/10/24 05:21:18;;;;;;;0.40;0.40;;;15.30;99.90;;;;;;5011743;27;20214;-88
2022/10/24 05:24:13;;;;;;;0.50;0.50;;;15.20;99.90;;;;;;5019315;27;20063;-90
2022/10/24 05:35:11;;;;;;;0.50;0.50;;;15.00;99.90;;;;;;4900475;28;20080;-91
2022/10/24 05:42:30;;;;;;;0.40;0.40;;;14.90;99.90;;;;;;4834954;28;20623;-88
2022/10/24 05:45:56;;;;;;;;;;;;;;;;;;;;;
2022/10/24 05:54:22;;;;;;;;;;;;;;;;;;;;;
2022/10/24 05:56:58;;;;;;;0.40;0.40;;;15.00;99.90;;;;;;4654850;30;20053;-87
2022/10/24 05:59:49;;;;;;;0.40;0.40;;;14.90;99.90;;;;;;4662951;30;20463;-86
2022/10/24 06:06:28;;;;;;;;;;;;;;;;;;;;;
2022/10/24 06:10:23;;;;;;;0.40;0.40;;;15.10;99.90;;;;;;4745912;29;20062;-88
2022/10/24 06:13:23;;;;;;;0.50;0.50;;;15.20;99.90;;;;;;4720217;29;20077;-87
2022/10/24 06:16:55;;;;;;;0.40;0.40;;;15.30;99.90;;;;;;4699488;30;20063;-84
2022/10/24 06:19:51;;;;;;;0.43;0.43;;;15.20;99.90;;;;;;4696363;30;20473;-86
2022/10/24 06:22:58;;;;;;;0.45;0.45;;;15.30;99.90;;;;;;4720866;29;20094;-90
2022/10/24 06:25:43;;;;;;;0.40;0.40;;;15.40;99.90;;;;;;4727011;29;20126;-84
2022/10/24 06:29:21;;;;;;;0.43;0.43;;;15.30;99.90;;;;;;4818826;29;20056;-84
2022/10/24 06:32:02;;;;;;;0.50;0.50;;;15.40;99.90;;;;;;4908609;28;20053;-89
2022/10/24 06:35:06;;;;;;;0.40;0.40;;;15.40;99.90;;;;;;4884084;28;20574;-89
2022/10/24 06:38:37;;;;;;;0.50;0.50;;;15.40;99.90;;;;;;4945015;28;20345;-90
2022/10/24 06:44:44;;;;;;;0.50;0.50;;;15.40;99.90;;;;;;4950112;28;20114;-86
2022/10/24 06:48:07;;;;;;;0.40;0.40;;;15.40;99.90;;;;;;4954730;28;20037;-87
2022/10/24 06:51:22;;;;;;;;;;;;;;;;;;;;;
2022/10/24 07:02:05;;;;;;;0.50;0.50;;;15.60;99.90;;;;;;4831154;29;20107;-86
2022/10/24 07:05:13;;;;;;;0.50;0.50;;;15.50;99.90;;;;;;4822368;29;20644;-89
2022/10/24 07:12:09;;;;;;;0.40;0.40;;;15.50;99.90;;;;;;4826011;29;20107;-87
2022/10/24 07:15:39;;;;;;;0.50;0.50;;;15.60;99.90;;;;;;4852597;29;20359;-88
2022/10/24 07:19:02;;;;;;;0.50;0.50;;;15.70;99.90;;;;;;4850093;29;20056;-85
2022/10/24 07:21:52;;;;;;;0.50;0.50;;;15.80;99.90;;;;;;4870540;28;20566;-87
2022/10/24 07:24:25;;;;;;;0.50;0.50;;;15.80;99.90;;;;;;4895541;28;20038;-87
2022/10/24 07:27:53;;;;;;;;;;;;;;;;;;;;;
2022/10/24 07:31:07;;;;;;;0.50;0.50;;;16.10;99.90;;;;;;4896278;28;20259;-88
2022/10/24 07:33:57;;;;;;;;;;;;;;;;;;;;;
2022/10/24 07:37:13;;;;;;;0.50;0.50;;;16.40;99.90;;;;;;4917369;28;20078;-87
2022/10/24 07:40:01;;;;;;;;;;;;;;;;;;;;;
2022/10/24 07:42:48;;;;;;;0.40;0.40;;;16.50;99.90;;;;;;4931461;28;20057;-88
2022/10/24 07:45:47;;;;;;;0.40;0.40;;;16.70;99.90;;;;;;4972615;28;20044;-89
2022/10/24 07:48:16;;;;;;;0.50;0.50;;;16.70;99.90;;;;;;4928411;28;20052;-84
2022/10/24 07:50:47;;;;;;;0.50;0.50;;;16.60;99.90;;;;;;4977376;28;20051;-87
2022/10/24 07:56:09;;;;;;;0.40;0.40;;;16.60;99.90;;;;;;4987948;28;20365;-81
2022/10/24 07:58:35;;;;;;;0.40;0.40;;;16.60;99.90;;;;;;4984198;28;20036;-79
2022/10/24 08:01:06;;;;;;;0.40;0.40;;;16.40;99.90;;;;;;5002072;28;20666;-81
2022/10/24 08:03:32;;;;;;;0.50;0.50;;;16.60;99.90;;;;;;4999222;28;20059;-86
2022/10/24 08:11:50;;;;;;;0.40;0.40;;;16.90;99.90;;;;;;4955404;28;20043;-86
2022/10/24 08:15:07;;;;;;;0.40;0.40;;;16.90;99.90;;;;;;4949873;28;20524;-89
2022/10/24 08:17:42;;;;;;;0.40;0.40;;;16.90;99.90;;;;;;5003845;28;20426;-83
2022/10/24 08:20:25;;;;;;;0.40;0.40;;;17.00;99.90;;;;;;4969679;28;20407;-86
2022/10/24 08:23:16;;;;;;;0.40;0.40;;;17.00;99.90;;;;;;4962307;28;20054;-88
2022/10/24 08:25:51;;;;;;;0.40;0.40;;;17.10;99.90;;;;;;5004974;28;20158;-85
2022/10/24 08:28:41;;;;;;;0.40;0.40;;;17.20;99.90;;;;;;4982914;28;20423;-85
2022/10/24 08:31:46;;;;;;;0.40;0.40;;;17.30;99.90;;;;;;5006212;28;20696;-87
2022/10/24 08:34:40;;;;;;;0.40;0.40;;;17.30;99.90;;;;;;5009032;28;20078;-85
2022/10/24 08:40:48;;;;;;;;;;;;;;;;;;;;;
2022/10/24 08:47:34;;;;;;;0.40;0.40;;;17.20;99.90;;;;;;4849703;28;20054;-87
2022/10/24 08:54:23;;;;;;;0.40;0.40;;;17.40;99.90;;;;;;4917400;28;20561;-91
2022/10/24 09:00:40;;;;;;;0.40;0.40;;;17.80;99.90;;;;;;4852772;28;21013;-86
2022/10/24 09:06:34;;;;;;;0.40;0.40;;;17.20;99.90;;;;;;4918013;28;20554;-84
2022/10/24 09:13:22;;;;;;;0.40;0.40;;;16.90;99.90;;;;;;4932566;28;20101;-88
2022/10/24 09:15:52;;;;;;;0.40;0.40;;;17.00;99.90;;;;;;4910503;28;20058;-85
2022/10/24 09:18:46;;;;;;;0.40;0.40;;;17.00;99.90;;;;;;4944358;28;21070;-80
2022/10/24 09:21:50;;;;;;;;;;;17.00;99.90;;;;;;4915535;28;20333;-92
2022/10/24 09:24:49;;;;;;;;;;;;;;;;;;;;;
2022/10/24 09:27:39;;;;;;;0.50;0.50;;;17.10;99.90;;;;;;4919820;28;20820;-85
2022/10/24 09:31:09;;;;;;;0.50;0.50;;;17.00;99.90;;;;;;4914638;28;20050;-87
2022/10/24 09:38:03;;;;;;;0.40;0.40;;;17.50;99.90;;;;;;4881934;28;20532;-92
2022/10/24 09:41:08;;;;;;;;;;;;;;;;;;;;;
2022/10/24 09:44:10;;;;;;;;;;;;;;;;;;;;;
2022/10/24 09:47:33;;;;;;;0.40;0.40;;;17.60;99.90;;;;;;4887996;28;20069;-89
2022/10/24 09:54:23;;;;;;;0.50;0.50;;;17.50;99.90;;;;;;4837913;29;20674;-87
2022/10/24 09:57:08;;;;;;;0.40;0.40;;;17.60;99.90;;;;;;4829882;29;20191;-90
2022/10/24 10:04:27;;;;;;;0.40;0.40;;;17.60;99.90;;;;;;4835717;29;20056;-93
2022/10/24 10:10:42;;;;;;;0.40;0.40;;;17.40;99.90;;;;;;4819028;28;20050;-87
2022/10/24 10:16:09;;;;;;;0.40;0.40;;;17.60;99.90;;;;;;4903519;28;20058;-85
2022/10/24 10:24:11;;;;;;;;;;;;;;;;;;;;;
2022/10/24 10:27:32;;;;;;;;;;;;;;;;;;;;;
2022/10/24 10:31:33;;;;;;;;;;;;;;;;;;;;;
2022/10/24 10:41:50;;;;;;;0.40;0.40;;;17.50;99.90;;;;;;4844985;29;20530;-95
2022/10/24 11:00:02;;;;;;;0.40;0.40;;;17.10;99.90;;;;;;4681134;30;20216;-92
2022/10/24 11:11:00;;;;;;;0.40;0.40;;;17.40;99.90;;;;;;4755420;29;20050;-88
2022/10/24 11:18:18;;;;;;;0.40;0.40;;;17.20;99.90;;;;;;4693554;30;20434;-88
2022/10/24 11:25:43;;;;;;;0.40;0.40;;;17.50;99.90;;;;;;4619789;30;20756;-87
2022/10/24 11:28:59;;;;;;;0.40;0.40;;;17.50;99.90;;;;;;4634914;30;20147;-87
2022/10/24 11:31:49;;;;;;;0.40;0.40;;;17.40;99.90;;;;;;4676128;29;20132;-87
2022/10/24 11:34:40;;;;;;;0.40;0.40;;;17.30;99.90;;;;;;4717496;29;20065;-82
2022/10/24 11:45:08;;;;;;;0.40;0.40;;;17.80;99.90;;;;;;4898593;28;20056;-82
2022/10/24 11:48:26;;;;;;;0.40;0.40;;;18.30;99.90;;;;;;4982074;28;20341;-87
2022/10/24 11:51:03;;;;;;;0.40;0.40;;;18.50;99.90;;;;;;5000375;28;20048;-86
2022/10/24 11:54:18;;;;;;;0.40;0.40;;;19.10;99.90;;;;;;5018716;28;20064;-92
2022/10/24 11:57:58;;;;;;;;;;;;;;;;;;;;;
2022/10/24 12:01:23;;;;;;;0.40;0.40;;;19.00;99.90;;;;;;4968051;28;20143;-91
2022/10/24 12:04:32;;;;;;;0.40;0.40;;;19.20;99.90;;;;;;4968160;28;20074;-87
2022/10/24 12:07:55;;;;;;;0.40;0.40;;;18.70;99.90;;;;;;4988246;28;20059;-86
2022/10/24 12:11:33;;;;;;;0.40;0.40;;;18.60;99.90;;;;;;4983033;28;20218;-91
2022/10/24 12:14:36;;;;;;;0.40;0.40;;;18.20;99.90;;;;;;4923573;28;20053;-93
2022/10/24 12:17:51;;;;;;;0.30;0.30;;;18.30;99.90;;;;;;4944390;28;21030;-86
2022/10/24 12:21:21;;;;;;;0.40;0.40;;;18.20;99.90;;;;;;4934809;28;20122;-86
2022/10/24 12:24:26;;;;;;;0.40;0.40;;;18.10;99.90;;;;;;4851942;28;20402;-91
2022/10/24 12:27:31;;;;;;;0.40;0.40;;;18.10;99.90;;;;;;4996150;28;20060;-94
2022/10/24 12:30:28;;;;;;;;;;;;;;;;;;;;;
2022/10/24 12:37:13;;;;;;;0.40;0.40;;;18.00;99.90;;;;;;5017465;28;20058;-92
2022/10/24 12:40:39;;;;;;;0.40;0.40;;;17.90;99.90;;;;;;5014722;28;20052;-87
2022/10/24 12:43:35;;;;;;;0.40;0.40;;;17.80;99.90;;;;;;5014615;28;20336;-90
2022/10/24 12:46:27;;;;;;;0.40;0.40;;;17.80;99.90;;;;;;4999375;28;20127;-84
2022/10/24 12:48:59;;;;;;;;;;;17.80;99.90;;;;;;4998785;28;20468;-83
2022/10/24 12:58:48;;;;;;;0.40;0.40;;;17.50;99.90;;;;;;5019869;28;20550;-92
2022/10/24 13:01:34;;;;;;;0.40;0.40;;;17.30;99.90;;;;;;5006559;28;20055;-90
2022/10/24 13:04:44;;;;;;;;;;;;;;;;;;;;;
2022/10/24 13:08:34;;;;;;;0.40;0.40;;;17.10;99.90;;;;;;4963213;28;20630;-89
2022/10/24 13:15:26;;;;;;;;;;;;;;;;;;;;;
2022/10/24 13:22:07;;;;;;;0.40;0.40;;;16.60;99.90;;;;;;4918405;28;20053;-89
2022/10/24 13:24:39;;;;;;;0.40;0.40;;;16.30;99.90;;;;;;4931767;28;20156;-86
2022/10/24 13:27:34;;;;;;;0.40;0.40;;;15.90;99.90;;;;;;4953596;28;20062;-86
2022/10/24 13:30:37;;;;;;;0.45;0.45;;;15.50;99.90;;;;;;4945349;28;20143;-86
2022/10/24 13:33:39;;;;;;;0.40;0.40;;;15.50;99.90;;;;;;4914249;28;20049;-88
2022/10/24 13:36:15;;;;;;;0.50;0.50;;;15.60;99.90;;;;;;4932524;28;20041;-89
2022/10/24 13:39:20;;;;;;;0.40;0.40;;;15.70;99.90;;;;;;4976664;28;20055;-85
2022/10/24 13:42:40;;;;;;;;;;;;;;;;;;;;;
2022/10/24 13:45:51;;;;;;;0.40;0.40;;;15.60;99.90;;;;;;4957609;28;20052;-85
2022/10/24 13:48:36;;;;;;;0.40;0.40;;;15.50;99.90;;;;;;4941230;28;20049;-88
2022/10/24 13:55:01;;;;;;;0.50;0.50;;;15.50;99.90;;;;;;4935080;28;20056;-86
2022/10/24 13:57:40;;;;;;;0.50;0.50;;;15.50;99.90;;;;;;4967747;28;20600;-88
2022/10/24 14:00:34;;;;;;;0.50;0.50;;;15.50;99.90;;;;;;4992854;28;20368;-89
2022/10/24 14:03:51;;;;;;;0.50;0.50;;;15.60;99.90;;;;;;4971219;28;20561;-91
2022/10/24 14:06:46;;;;;;;0.50;0.50;;;15.50;99.90;;;;;;4924364;28;20048;-87
2022/10/24 14:09:12;;;;;;;0.50;0.50;;;15.50;99.90;;;;;;4965423;28;20537;-87
2022/10/24 14:12:00;;;;;;;0.50;0.50;;;15.50;99.90;;;;;;4979379;28;20375;-87
2022/10/24 14:15:05;;;;;;;0.40;0.40;;;15.50;99.90;;;;;;4993659;28;20045;-87
2022/10/24 14:18:07;;;;;;;0.50;0.50;;;15.50;99.90;;;;;;4948376;28;20319;-90
2022/10/24 14:21:01;;;;;;;0.50;0.50;;;15.30;99.90;;;;;;4987711;28;20636;-85
2022/10/24 14:24:36;;;;;;;0.40;0.40;;;15.30;99.90;;;;;;4999160;28;20052;-87
2022/10/24 14:27:25;;;;;;;0.50;0.50;;;15.30;99.90;;;;;;4952483;28;20607;-89
2022/10/24 14:30:21;;;;;;;0.50;0.50;;;15.30;99.90;;;;;;4993524;28;20059;-90
2022/10/24 14:33:25;;;;;;;0.50;0.50;;;15.30;99.90;;;;;;4992649;28;20097;-90
2022/10/24 14:35:57;;;;;;;0.50;0.50;;;15.30;99.90;;;;;;4990049;28;20052;-89
2022/10/24 14:44:42;;;;;;;0.40;0.40;;;15.10;99.90;;;;;;4979763;28;20414;-87
2022/10/24 14:47:53;;;;;;;0.50;0.50;;;15.10;99.90;;;;;;4976998;28;20660;-88
2022/10/24 14:50:44;;;;;;;0.50;0.50;;;15.10;99.90;;;;;;4943774;28;20053;-89
2022/10/24 14:53:50;;;;;;;0.40;0.40;;;15.10;99.90;;;;;;4961719;28;20152;-91
2022/10/24 14:56:46;;;;;;;0.50;0.50;;;15.00;99.90;;;;;;4948958;28;20064;-86
2022/10/24 14:59:50;;;;;;;0.40;0.40;;;15.00;99.90;;;;;;4929740;28;21001;-86
2022/10/24 15:02:53;;;;;;;0.40;0.40;;;15.10;99.90;;;;;;4970371;28;20053;-90
2022/10/24 15:05:35;;;;;;;0.50;0.50;;;15.00;99.90;;;;;;4953226;28;20255;-90
2022/10/24 15:08:16;;;;;;;0.43;0.43;;;14.90;99.90;;;;;;4973002;28;20090;-95
2022/10/24 15:11:24;;;;;;;;;;;;;;;;;;;;;
2022/10/24 15:14:47;;;;;;;0.40;0.40;;;14.90;99.90;;;;;;4975741;28;20375;-89
2022/10/24 15:17:29;;;;;;;0.40;0.40;;;14.80;99.90;;;;;;4977581;28;20420;-89
2022/10/24 15:20:55;;;;;;;;;;;;;;;;;;;;;
2022/10/24 15:24:18;;;;;;;0.50;0.50;;;14.60;99.90;;;;;;4974346;28;20057;-88
2022/10/24 15:26:45;;;;;;;0.50;0.50;;;14.60;99.90;;;;;;4969437;28;20403;-84
2022/10/24 15:29:27;;;;;;;0.40;0.40;;;14.50;99.90;;;;;;4929984;28;20462;-89
2022/10/24 15:31:58;;;;;;;0.40;0.40;;;14.60;99.90;;;;;;5031341;28;20144;-88
2022/10/24 15:34:31;;;;;;;0.50;0.50;;;14.50;99.90;;;;;;5013201;28;20266;-88
2022/10/24 15:41:01;;;;;;;0.50;0.50;;;14.60;99.90;;;;;;4960652;28;20049;-87
2022/10/24 15:43:39;;;;;;;0.50;0.50;;;14.60;99.90;;;;;;4930191;28;20373;-88
2022/10/24 15:46:37;;;;;;;0.40;0.40;;;14.60;99.90;;;;;;4921028;28;20045;-86
2022/10/24 15:49:21;;;;;;;0.50;0.50;;;14.70;99.90;;;;;;4946223;28;20443;-89
2022/10/24 15:52:00;;;;;;;0.50;0.50;;;14.80;99.90;;;;;;4977274;28;20388;-85
2022/10/24 15:54:29;;;;;;;0.50;0.50;;;14.80;99.90;;;;;;4972110;28;20056;-86
2022/10/24 15:57:15;;;;;;;0.50;0.50;;;14.80;99.90;;;;;;5008590;28;20538;-86
2022/10/24 16:00:15;;;;;;;0.50;0.50;;;14.70;99.90;;;;;;4979028;28;20048;-86
2022/10/24 16:02:54;;;;;;;0.40;0.40;;;14.70;99.90;;;;;;4991166;28;20060;-92
2022/10/24 16:09:42;;;;;;;0.40;0.40;;;14.70;99.90;;;;;;4990597;28;20816;-87
2022/10/24 16:17:22;;;;;;;0.50;0.50;;;14.80;99.90;;;;;;4934895;28;20139;-92
2022/10/24 16:24:03;;;;;;;0.50;0.50;;;14.70;99.90;;;;;;4900082;28;20511;-93
2022/10/24 16:27:04;;;;;;;0.50;0.50;;;14.70;99.90;;;;;;4880939;28;20563;-91
2022/10/24 16:30:07;;;;;;;;;;;;;;;;;;;;;
2022/10/24 16:32:58;;;;;;;;;;;;;;;;;;;;;
2022/10/24 16:36:04;;;;;;;0.50;0.50;;;14.40;99.90;;;;;;4921050;28;20088;-86
2022/10/24 16:38:43;;;;;;;0.50;0.50;;;14.40;99.90;;;;;;4912017;28;20096;-87
2022/10/24 16:41:27;;;;;;;0.50;0.50;;;14.30;99.90;;;;;;4922042;28;20058;-89
2022/10/24 16:44:26;;;;;;;;;;;;;;;;;;;;;
2022/10/24 16:50:24;;;;;;;0.50;0.50;;;14.10;99.90;;;;;;4932996;28;20096;-90
2022/10/24 16:57:03;;;;;;;0.50;0.50;;;14.00;99.90;;;;;;4901081;28;20902;-89
2022/10/24 16:59:43;;;;;;;0.50;0.50;;;14.00;99.90;;;;;;4974402;28;20144;-88
2022/10/24 17:02:59;;;;;;;0.50;0.50;;;13.90;99.90;;;;;;4933166;28;20057;-90
2022/10/24 17:05:45;;;;;;;0.50;0.50;;;13.90;99.90;;;;;;4951960;28;20059;-88
2022/10/24 17:08:14;;;;;;;0.50;0.50;;;13.90;99.90;;;;;;4972207;28;20052;-87
2022/10/24 17:11:29;;;;;;;0.50;0.50;;;13.80;99.90;;;;;;4938642;28;20053;-87
2022/10/24 17:14:13;;;;;;;0.50;0.50;;;13.80;99.90;;;;;;4938293;28;20196;-88
2022/10/24 17:17:11;;;;;;;0.50;0.50;;;13.70;99.90;;;;;;4964437;28;20057;-86
2022/10/24 17:23:13;;;;;;;0.50;0.50;;;13.70;99.90;;;;;;4975819;28;20045;-85
2022/10/24 17:29:11;;;;;;;0.40;0.40;;;13.70;99.90;;;;;;5025166;28;20048;-88
2022/10/24 17:39:29;;;;;;;0.50;0.50;;;13.60;99.90;;;;;;4915821;28;20116;-87
2022/10/24 17:46:04;;;;;;;;;;;;;;;;;;;;;
2022/10/24 17:49:20;;;;;;;0.50;0.50;;;13.60;99.90;;;;;;4900392;28;20354;-86
2022/10/24 17:55:28;;;;;;;0.50;0.50;;;13.70;99.90;;;;;;4918370;28;20823;-86
2022/10/24 17:58:21;;;;;;;0.50;0.50;;;13.60;99.90;;;;;;4890765;28;20054;-89
2022/10/24 18:01:49;;;;;;;0.50;0.50;;;13.70;99.90;;;;;;4904255;28;20513;-90
2022/10/24 18:04:41;;;;;;;0.50;0.50;;;13.60;99.90;;;;;;4886786;28;20062;-90
2022/10/24 18:07:19;;;;;;;0.50;0.50;;;13.60;99.90;;;;;;4938508;28;20061;-91
2022/10/24 18:10:20;;;;;;;0.50;0.50;;;13.60;99.90;;;;;;4936248;28;21037;-89
2022/10/24 18:13:35;;;;;;;0.50;0.50;;;13.60;99.90;;;;;;4974084;28;20664;-90
2022/10/24 18:16:21;;;;;;;0.50;0.50;;;13.70;99.90;;;;;;4968418;28;20044;-88
2022/10/24 18:18:59;;;;;;;0.50;0.50;;;13.70;99.90;;;;;;4990227;28;20470;-88
2022/10/24 18:22:34;;;;;;;;;;;;;;;;;;;;;
2022/10/24 18:28:20;;;;;;;;;;;;;;;;;;;;;
2022/10/24 18:31:11;;;;;;;0.50;0.50;;;13.50;99.90;;;;;;5036340;28;20070;-89
2022/10/24 18:33:45;;;;;;;0.50;0.50;;;13.50;99.90;;;;;;5005457;28;20040;-89
2022/10/24 18:37:00;;;;;;;;;;;;;;;;;;;;;
2022/10/24 18:39:50;;;;;;;0.50;0.50;;;13.30;99.90;;;;;;4960264;28;20060;-90
2022/10/24 18:42:34;;;;;;;0.50;0.50;;;13.30;99.90;;;;;;4957686;28;20544;-88
2022/10/24 18:45:32;;;;;;;;;;;13.30;99.90;;;;;;4956590;28;20064;-88
2022/10/24 18:52:14;;;;;;;0.50;0.50;;;13.30;99.90;;;;;;4931675;28;20062;-92
2022/10/24 18:55:56;;;;;;;;;;;;;;;;;;;;;
2022/10/24 18:59:00;;;;;;;0.50;0.50;;;13.20;99.90;;;;;;4898165;28;21121;-90
2022/10/24 19:02:36;;;;;;;0.50;0.50;;;13.20;99.90;;;;;;4894909;28;20384;-90
2022/10/24 19:05:52;;;;;;;0.50;0.50;;;13.20;99.90;;;;;;4862150;28;20047;-86
2022/10/24 19:08:44;;;;;;;;;;;;;;;;;;;;;
2022/10/24 19:11:39;;;;;;;0.50;0.50;;;13.20;99.90;;;;;;4979430;28;20067;-88
2022/10/24 19:15:12;;;;;;;0.50;0.50;;;13.10;99.90;;;;;;4995489;28;20052;-89
2022/10/24 19:21:47;;;;;;;0.50;0.50;;;13.10;99.90;;;;;;4867850;28;20086;-90
2022/10/24 19:24:29;;;;;;;0.50;0.50;;;13.00;99.90;;;;;;4918377;28;20498;-89
2022/10/24 19:27:30;;;;;;;0.50;0.50;;;12.90;99.90;;;;;;4908290;28;20073;-88
2022/10/24 19:30:17;;;;;;;0.50;0.50;;;12.90;99.90;;;;;;4892446;28;20261;-90
2022/10/24 19:33:01;;;;;;;0.50;0.50;;;13.10;99.90;;;;;;4955603;28;20041;-85
2022/10/24 19:38:36;;;;;;;0.50;0.50;;;12.80;99.90;;;;;;4975083;28;20152;-88
2022/10/24 19:42:12;;;;;;;0.50;0.50;;;12.80;99.90;;;;;;4973686;28;20056;-88
2022/10/24 19:45:48;;;;;;;0.50;0.50;;;12.80;99.90;;;;;;4926638;28;20109;-89
2022/10/24 19:59:13;;;;;;;;;;;;;;;;;;;;;
2022/10/24 20:04:53;;;;;;;0.50;0.50;;;12.80;99.90;;;;;;4877907;28;20082;-88
2022/10/24 20:07:51;;;;;;;0.50;0.50;;;12.70;99.90;;;;;;4867408;28;20059;-86
2022/10/24 20:18:28;;;;;;;0.50;0.50;;;12.80;99.90;;;;;;4858924;28;20934;-91
2022/10/24 20:21:37;;;;;;;;;;;;;;;;;;;;;
2022/10/24 20:25:23;;;;;;;0.50;0.50;;;12.70;99.90;;;;;;4864766;29;20058;-90
2022/10/24 20:28:15;;;;;;;0.50;0.50;;;12.70;99.90;;;;;;4860260;28;20139;-91
2022/10/24 20:37:40;;;;;;;0.50;0.50;;;12.50;99.90;;;;;;4865870;29;20051;-90
2022/10/24 20:40:15;;;;;;;;;;;12.60;99.90;;;;;;4888522;28;20464;-86
2022/10/24 20:42:44;;;;;;;0.50;0.50;;;12.60;99.90;;;;;;4852182;28;19926;-91
2022/10/24 20:46:43;;;;;;;0.50;0.50;;;12.70;99.90;;;;;;4854674;28;20059;-88
2022/10/24 20:49:12;;;;;;;0.50;0.50;;;12.70;99.90;;;;;;4853708;28;20788;-88
2022/10/24 20:51:47;;;;;;;0.50;0.50;;;12.80;99.90;;;;;;4860044;28;20494;-86
2022/10/24 20:57:48;;;;;;;0.50;0.50;;;12.70;99.90;;;;;;4988473;28;20090;-88
2022/10/24 21:00:33;;;;;;;0.50;0.50;;;12.90;99.90;;;;;;4950710;28;20084;-87
2022/10/24 21:02:59;;;;;;;0.50;0.50;;;12.90;99.90;;;;;;4965401;28;20888;-85
2022/10/24 21:05:49;;;;;;;0.50;0.50;;;13.00;99.90;;;;;;4957408;28;20185;-87
2022/10/24 21:08:33;;;;;;;0.50;0.50;;;13.10;99.90;;;;;;4977747;28;20424;-90
2022/10/24 21:11:23;;;;;;;;;;;13.10;99.90;;;;;;4971816;28;20235;-88
2022/10/24 21:14:11;;;;;;;0.50;0.50;;;13.00;99.90;;;;;;4980243;28;19951;-89
2022/10/24 21:16:50;;;;;;;0.50;0.50;;;13.10;99.90;;;;;;4995055;28;20052;-85
2022/10/24 21:19:48;;;;;;;0.50;0.50;;;13.00;99.90;;;;;;4978829;28;20288;-88
2022/10/24 21:22:25;;;;;;;0.50;0.50;;;13.00;99.90;;;;;;4959299;28;20580;-89
2022/10/24 21:25:21;;;;;;;0.50;0.50;;;13.00;99.90;;;;;;4987855;28;20973;-88
2022/10/24 21:27:55;;;;;;;0.50;0.50;;;13.00;99.90;;;;;;4980815;28;20045;-84